createdAt,value
2022-07-27T00:00:57.606Z,18.74
2022-07-27T00:01:57.496Z,18.82
2022-07-27T00:02:57.493Z,18.73
2022-07-27T00:03:57.492Z,18.73
2022-07-27T00:04:57.462Z,18.73
2022-07-27T00:05:57.456Z,18.62
2022-07-27T00:06:57.439Z,18.77
2022-07-27T00:07:57.428Z,18.72
2022-07-27T00:08:57.408Z,18.65
2022-07-27T00:09:57.404Z,18.57
2022-07-27T00:10:57.411Z,18.59
2022-07-27T00:11:57.377Z,18.67
2022-07-27T00:12:57.374Z,18.68
2022-07-27T00:13:57.361Z,18.62
2022-07-27T00:14:57.351Z,18.61
2022-07-27T00:15:57.428Z,18.52
2022-07-27T00:16:57.326Z,18.62
2022-07-27T00:17:57.317Z,18.54
2022-07-27T00:18:57.298Z,18.40
2022-07-27T00:19:57.296Z,18.50
2022-07-27T00:20:57.303Z,18.42
2022-07-27T00:21:57.264Z,18.49
2022-07-27T00:22:57.260Z,18.46
2022-07-27T00:23:57.248Z,18.46
2022-07-27T00:24:57.231Z,18.39
2022-07-27T00:25:57.232Z,18.34
2022-07-27T00:26:57.216Z,18.36
2022-07-27T00:27:57.204Z,18.34
2022-07-27T00:28:57.193Z,18.29
2022-07-27T00:29:57.173Z,18.28
2022-07-27T00:30:57.337Z,18.31
2022-07-27T00:31:57.229Z,18.25
2022-07-27T00:32:57.159Z,18.33
2022-07-27T00:33:57.136Z,18.21
2022-07-27T00:34:57.118Z,18.13
2022-07-27T00:35:57.150Z,18.17
2022-07-27T00:36:57.102Z,18.21
2022-07-27T00:37:57.091Z,18.22
2022-07-27T00:38:57.071Z,18.12
2022-07-27T00:39:57.067Z,18.13
2022-07-27T00:40:57.049Z,18.15
2022-07-27T00:41:57.057Z,18.18
2022-07-27T00:42:57.031Z,18.12
2022-07-27T00:43:57.022Z,18.13
2022-07-27T00:44:57.001Z,18.04
2022-07-27T00:45:56.988Z,17.99
2022-07-27T00:46:57.081Z,18.07
2022-07-27T00:47:56.973Z,18.06
2022-07-27T00:48:57.022Z,17.95
2022-07-27T00:49:56.950Z,18.09
2022-07-27T00:50:56.940Z,17.94
2022-07-27T00:51:56.940Z,17.97
2022-07-27T00:52:56.908Z,18.04
2022-07-27T00:53:56.898Z,18.00
2022-07-27T00:54:56.893Z,17.95
2022-07-27T00:55:56.885Z,17.94
2022-07-27T00:56:56.887Z,18.04
2022-07-27T00:57:59.556Z,17.92
2022-07-27T00:58:56.846Z,18.02
2022-07-27T00:59:56.828Z,17.85
2022-07-27T01:00:56.822Z,17.91
2022-07-27T01:01:56.909Z,17.99
2022-07-27T01:02:57.587Z,17.87
2022-07-27T01:03:56.787Z,17.82
2022-07-27T01:04:56.876Z,17.89
2022-07-27T01:05:56.767Z,17.84
2022-07-27T01:06:56.769Z,17.76
2022-07-27T01:07:56.734Z,17.78
2022-07-27T01:08:56.723Z,17.79
2022-07-27T01:09:56.726Z,17.71
2022-07-27T01:10:56.709Z,17.63
2022-07-27T01:11:56.707Z,17.69
2022-07-27T01:12:56.686Z,17.67
2022-07-27T01:13:56.672Z,17.71
2022-07-27T01:14:56.656Z,17.73
2022-07-27T01:15:56.698Z,17.66
2022-07-27T01:16:56.646Z,17.63
2022-07-27T01:17:56.625Z,17.62
2022-07-27T01:18:56.612Z,17.62
2022-07-27T01:23:28.469Z,17.63
2022-07-27T01:24:26.009Z,17.59
2022-07-27T01:25:25.990Z,17.73
2022-07-27T01:26:25.987Z,17.63
2022-07-27T01:27:25.979Z,17.64
2022-07-27T01:28:25.964Z,17.62
2022-07-27T01:29:25.948Z,17.62
2022-07-27T01:30:25.943Z,17.59
2022-07-27T01:31:25.970Z,17.57
2022-07-27T01:32:25.933Z,17.53
2022-07-27T01:33:26.184Z,17.64
2022-07-27T01:34:25.902Z,17.55
2022-07-27T01:35:25.888Z,17.63
2022-07-27T01:36:25.870Z,17.54
2022-07-27T01:37:25.885Z,17.62
2022-07-27T01:38:25.851Z,17.54
2022-07-27T01:39:25.833Z,17.50
2022-07-27T01:40:25.830Z,17.54
2022-07-27T01:41:25.817Z,17.51
2022-07-27T01:42:25.816Z,17.50
2022-07-27T01:43:25.790Z,17.48
2022-07-27T01:44:25.784Z,17.50
2022-07-27T01:45:25.774Z,17.46
2022-07-27T01:46:25.816Z,17.46
2022-07-27T01:47:25.761Z,17.51
2022-07-27T01:48:25.739Z,17.44
2022-07-27T01:49:25.822Z,17.47
2022-07-27T01:50:25.722Z,17.41
2022-07-27T01:51:25.695Z,17.44
2022-07-27T01:52:25.712Z,17.40
2022-07-27T01:53:25.682Z,17.44
2022-07-27T01:54:25.662Z,17.40
2022-07-27T01:55:25.651Z,17.35
2022-07-27T01:56:25.637Z,17.41
2022-07-27T01:57:25.642Z,17.41
2022-07-27T01:58:25.622Z,17.35
2022-07-27T01:59:25.604Z,17.32
2022-07-27T02:00:25.594Z,17.43
2022-07-27T02:01:25.625Z,17.41
2022-07-27T02:02:25.580Z,17.35
2022-07-27T02:03:25.562Z,17.38
2022-07-27T02:04:25.549Z,17.32
2022-07-27T02:05:25.651Z,17.30
2022-07-27T02:06:25.533Z,17.32
2022-07-27T02:07:25.532Z,17.36
2022-07-27T02:08:25.507Z,17.32
2022-07-27T02:09:25.495Z,17.26
2022-07-27T02:10:25.486Z,17.35
2022-07-27T02:11:25.477Z,17.13
2022-07-27T02:12:25.483Z,17.20
2022-07-27T02:13:25.447Z,17.26
2022-07-27T02:14:25.438Z,17.14
2022-07-27T02:15:25.431Z,17.17
2022-07-27T02:16:25.449Z,17.11
2022-07-27T02:17:25.418Z,17.17
2022-07-27T02:18:35.898Z,17.10
2022-07-27T02:19:26.386Z,17.07
2022-07-27T02:20:25.364Z,17.08
2022-07-27T02:21:25.364Z,17.07
2022-07-27T02:22:25.363Z,17.08
2022-07-27T02:23:25.327Z,17.04
2022-07-27T02:24:25.316Z,17.06
2022-07-27T02:25:25.314Z,17.03
2022-07-27T02:26:25.297Z,17.04
2022-07-27T02:27:25.296Z,17.03
2022-07-27T02:28:25.276Z,16.93
2022-07-27T02:29:25.264Z,16.92
2022-07-27T02:30:25.254Z,16.96
2022-07-27T02:31:25.243Z,16.98
2022-07-27T02:32:25.276Z,16.96
2022-07-27T02:33:25.221Z,16.92
2022-07-27T02:34:25.200Z,16.89
2022-07-27T02:35:25.189Z,16.92
2022-07-27T02:36:25.185Z,16.95
2022-07-27T02:37:25.192Z,16.90
2022-07-27T02:38:25.161Z,16.86
2022-07-27T02:39:25.155Z,16.85
2022-07-27T02:40:25.142Z,16.83
2022-07-27T02:41:25.169Z,16.74
2022-07-27T02:42:25.133Z,16.86
2022-07-27T02:43:25.097Z,16.77
2022-07-27T02:44:25.095Z,16.85
2022-07-27T02:45:25.085Z,16.68
2022-07-27T02:46:25.093Z,16.78
2022-07-27T02:47:25.067Z,16.60
2022-07-27T02:48:25.039Z,16.70
2022-07-27T02:49:25.058Z,16.68
2022-07-27T02:50:25.021Z,16.58
2022-07-27T02:51:25.019Z,16.59
2022-07-27T02:52:25.016Z,16.70
2022-07-27T02:53:24.991Z,16.63
2022-07-27T02:54:24.981Z,16.63
2022-07-27T02:55:24.967Z,16.60
2022-07-27T02:56:26.945Z,16.53
2022-07-27T02:57:24.965Z,16.55
2022-07-27T02:58:24.936Z,16.60
2022-07-27T02:59:24.920Z,16.49
2022-07-27T03:00:24.920Z,16.56
2022-07-27T03:01:25.000Z,16.50
2022-07-27T03:02:24.911Z,16.50
2022-07-27T03:03:24.881Z,16.44
2022-07-27T03:04:25.958Z,16.40
2022-07-27T03:05:24.854Z,16.41
2022-07-27T03:06:24.860Z,16.38
2022-07-27T03:07:24.841Z,16.35
2022-07-27T03:08:24.816Z,16.34
2022-07-27T03:09:32.849Z,16.33
2022-07-27T03:10:25.843Z,16.30
2022-07-27T03:11:24.790Z,16.23
2022-07-27T03:12:24.808Z,16.26
2022-07-27T03:13:24.764Z,16.30
2022-07-27T03:14:24.760Z,16.23
2022-07-27T03:15:24.745Z,16.30
2022-07-27T03:16:24.831Z,16.26
2022-07-27T03:17:24.723Z,16.26
2022-07-27T03:18:24.727Z,16.20
2022-07-27T03:19:29.979Z,16.27
2022-07-27T03:20:25.684Z,16.25
2022-07-27T03:21:24.670Z,16.22
2022-07-27T03:22:24.671Z,16.20
2022-07-27T03:23:24.673Z,16.27
2022-07-27T03:24:24.651Z,16.22
2022-07-27T03:25:24.635Z,16.12
2022-07-27T03:26:24.624Z,16.09
2022-07-27T03:27:24.613Z,16.16
2022-07-27T03:28:24.617Z,16.01
2022-07-27T03:29:24.592Z,16.06
2022-07-27T03:30:24.572Z,16.15
2022-07-27T03:31:24.647Z,16.11
2022-07-27T03:32:24.557Z,15.97
2022-07-27T03:33:24.561Z,15.96
2022-07-27T03:34:24.534Z,16.00
2022-07-27T03:35:24.521Z,16.06
2022-07-27T03:36:24.519Z,16.06
2022-07-27T03:37:24.500Z,16.03
2022-07-27T03:39:37.471Z,15.96
2022-07-27T03:40:34.264Z,15.94
2022-07-27T03:41:34.264Z,15.96
2022-07-27T03:42:34.255Z,16.00
2022-07-27T03:43:34.272Z,15.84
2022-07-27T03:44:34.227Z,15.85
2022-07-27T03:45:34.293Z,15.88
2022-07-27T03:46:34.215Z,15.76
2022-07-27T03:47:34.208Z,15.85
2022-07-27T03:48:34.251Z,15.92
2022-07-27T03:49:34.321Z,15.81
2022-07-27T03:50:34.165Z,15.86
2022-07-27T03:51:34.145Z,15.84
2022-07-27T03:52:34.154Z,15.76
2022-07-27T03:53:34.130Z,15.84
2022-07-27T03:54:34.118Z,15.79
2022-07-27T03:55:34.100Z,15.75
2022-07-27T03:56:34.090Z,15.75
2022-07-27T03:57:34.078Z,15.75
2022-07-27T03:58:34.092Z,15.72
2022-07-27T03:59:34.067Z,15.78
2022-07-27T04:00:34.043Z,15.76
2022-07-27T04:01:34.146Z,15.72
2022-07-27T04:02:34.077Z,15.76
2022-07-27T04:03:34.037Z,15.67
2022-07-27T04:04:34.007Z,15.79
2022-07-27T04:05:33.989Z,15.75
2022-07-27T04:06:33.982Z,15.63
2022-07-27T04:07:33.975Z,15.61
2022-07-27T04:08:33.953Z,15.63
2022-07-27T04:09:33.956Z,15.70
2022-07-27T04:10:33.928Z,15.61
2022-07-27T04:11:33.922Z,15.61
2022-07-27T04:12:33.906Z,15.72
2022-07-27T04:13:33.901Z,15.63
2022-07-27T04:14:33.909Z,15.64
2022-07-27T04:15:33.873Z,15.67
2022-07-27T04:16:36.234Z,15.76
2022-07-27T04:17:53.247Z,15.59
2022-07-27T04:18:34.845Z,15.59
2022-07-27T04:19:33.851Z,15.60
2022-07-27T04:20:33.839Z,15.68
2022-07-27T04:21:33.985Z,15.66
2022-07-27T04:22:33.801Z,15.67
2022-07-27T04:23:38.186Z,15.68
2022-07-27T04:24:33.789Z,15.67
2022-07-27T04:25:33.758Z,15.66
2022-07-27T04:26:33.751Z,15.68
2022-07-27T04:27:33.743Z,15.64
2022-07-27T04:28:33.725Z,15.57
2022-07-27T04:29:33.715Z,15.72
2022-07-27T04:30:33.763Z,15.68
2022-07-27T04:31:33.699Z,15.67
2022-07-27T04:32:33.678Z,15.59
2022-07-27T04:33:33.679Z,15.64
2022-07-27T04:34:33.667Z,15.72
2022-07-27T04:35:33.672Z,15.79
2022-07-27T04:36:33.642Z,15.75
2022-07-27T04:37:33.631Z,15.84
2022-07-27T04:38:33.608Z,15.86
2022-07-27T04:39:33.602Z,15.81
2022-07-27T04:40:33.619Z,15.85
2022-07-27T04:41:33.575Z,15.81
2022-07-27T04:42:33.573Z,15.85
2022-07-27T04:43:33.552Z,15.96
2022-07-27T04:44:33.543Z,15.93
2022-07-27T04:45:33.622Z,15.88
2022-07-27T04:46:33.581Z,15.88
2022-07-27T04:47:33.510Z,15.89
2022-07-27T04:48:33.549Z,15.94
2022-07-27T04:49:33.495Z,16.06
2022-07-27T04:50:33.478Z,15.97
2022-07-27T04:51:34.813Z,15.94
2022-07-27T04:52:33.459Z,16.00
2022-07-27T04:53:33.442Z,16.09
2022-07-27T04:54:33.446Z,16.01
2022-07-27T04:55:33.427Z,16.00
2022-07-27T04:56:33.418Z,15.99
2022-07-27T04:57:33.394Z,15.96
2022-07-27T04:58:33.383Z,16.06
2022-07-27T04:59:33.388Z,16.06
2022-07-27T05:00:33.364Z,16.18
2022-07-27T05:01:35.436Z,16.14
2022-07-27T05:02:33.335Z,16.14
2022-07-27T05:03:33.325Z,16.11
2022-07-27T05:04:33.419Z,16.00
2022-07-27T05:05:33.314Z,16.11
2022-07-27T05:06:33.319Z,16.22
2022-07-27T05:07:33.323Z,16.22
2022-07-27T05:08:33.275Z,16.23
2022-07-27T05:09:33.258Z,16.31
2022-07-27T05:10:33.248Z,16.33
2022-07-27T05:11:33.234Z,16.45
2022-07-27T05:12:33.247Z,16.50
2022-07-27T05:13:33.212Z,16.59
2022-07-27T05:14:33.206Z,16.62
2022-07-27T05:15:54.260Z,16.67
2022-07-27T05:16:34.193Z,16.81
2022-07-27T05:17:33.197Z,16.83
2022-07-27T05:18:33.162Z,16.89
2022-07-27T05:19:40.622Z,16.88
2022-07-27T05:20:34.142Z,16.88
2022-07-27T05:21:33.122Z,16.93
2022-07-27T05:22:37.540Z,16.93
2022-07-27T05:23:34.113Z,16.78
2022-07-27T05:24:33.091Z,16.95
2022-07-27T05:25:33.085Z,16.98
2022-07-27T05:26:33.065Z,16.96
2022-07-27T05:27:33.054Z,16.92
2022-07-27T05:28:33.045Z,17.06
2022-07-27T05:29:33.052Z,17.03
2022-07-27T05:30:33.024Z,17.03
2022-07-27T05:31:33.074Z,16.96
2022-07-27T05:32:32.994Z,17.04
2022-07-27T05:33:32.985Z,17.14
2022-07-27T05:34:32.996Z,17.17
2022-07-27T05:35:32.967Z,17.25
2022-07-27T05:36:32.948Z,17.20
2022-07-27T05:37:32.938Z,17.35
2022-07-27T05:38:32.927Z,17.44
2022-07-27T05:39:32.931Z,17.47
2022-07-27T05:40:32.903Z,17.55
2022-07-27T05:41:32.902Z,17.69
2022-07-27T05:42:32.886Z,17.73
2022-07-27T05:43:32.879Z,17.87
2022-07-27T05:44:32.881Z,17.89
2022-07-27T05:45:32.881Z,17.99
2022-07-27T05:46:32.918Z,18.10
2022-07-27T05:47:32.837Z,18.09
2022-07-27T05:48:32.871Z,18.24
2022-07-27T05:49:32.811Z,18.27
2022-07-27T05:50:32.808Z,18.39
2022-07-27T05:51:32.787Z,18.58
2022-07-27T05:52:32.776Z,18.52
2022-07-27T05:53:32.764Z,18.62
2022-07-27T05:54:32.746Z,18.79
2022-07-27T05:55:32.751Z,18.79
2022-07-27T05:56:32.738Z,18.86
2022-07-27T05:57:32.728Z,18.99
2022-07-27T05:58:32.706Z,19.15
2022-07-27T05:59:32.697Z,19.32
2022-07-27T06:00:32.685Z,19.38
2022-07-27T06:01:32.806Z,19.53
2022-07-27T06:02:32.653Z,19.65
2022-07-27T06:03:32.785Z,19.76
2022-07-27T06:04:32.638Z,19.90
2022-07-27T06:05:32.621Z,19.97
2022-07-27T06:06:32.623Z,20.16
2022-07-27T06:07:32.608Z,20.21
2022-07-27T06:08:32.593Z,20.25
2022-07-27T06:09:32.577Z,20.39
2022-07-27T06:10:32.752Z,20.51
2022-07-27T06:11:32.576Z,20.58
2022-07-27T06:12:32.554Z,20.58
2022-07-27T06:13:32.528Z,20.76
2022-07-27T06:14:32.523Z,20.80
2022-07-27T06:15:32.515Z,20.84
2022-07-27T06:16:32.554Z,20.89
2022-07-27T06:17:32.487Z,20.89
2022-07-27T06:18:32.479Z,21.01
2022-07-27T06:19:36.532Z,20.99
2022-07-27T06:20:33.450Z,21.01
2022-07-27T06:21:32.456Z,21.08
2022-07-27T06:22:32.429Z,21.09
2022-07-27T06:23:32.431Z,21.24
2022-07-27T06:24:32.414Z,21.23
2022-07-27T06:25:34.131Z,21.27
2022-07-27T06:26:32.397Z,21.19
2022-07-27T06:27:37.476Z,21.26
2022-07-27T06:28:33.360Z,21.32
2022-07-27T06:29:32.358Z,21.39
2022-07-27T06:30:32.337Z,21.45
2022-07-27T06:31:35.557Z,21.51
2022-07-27T06:32:32.332Z,21.59
2022-07-27T06:33:32.305Z,21.78
2022-07-27T06:34:32.293Z,21.90
2022-07-27T06:35:32.295Z,21.81
2022-07-27T06:36:32.275Z,21.78
2022-07-27T06:37:32.267Z,21.91
2022-07-27T06:38:32.272Z,21.91
2022-07-27T06:39:32.242Z,21.82
2022-07-27T06:40:32.242Z,21.81
2022-07-27T06:41:32.224Z,21.85
2022-07-27T06:42:32.210Z,21.85
2022-07-27T06:43:32.216Z,21.79
2022-07-27T06:44:32.188Z,21.76
2022-07-27T06:45:32.173Z,21.57
2022-07-27T06:46:32.209Z,21.64
2022-07-27T06:47:32.153Z,21.69
2022-07-27T06:48:32.189Z,21.74
2022-07-27T06:49:32.125Z,21.61
2022-07-27T06:50:32.138Z,21.60
2022-07-27T06:51:32.111Z,21.63
2022-07-27T06:52:32.094Z,21.90
2022-07-27T06:53:36.441Z,22.13
2022-07-27T06:54:33.093Z,22.47
2022-07-27T06:55:32.058Z,22.74
2022-07-27T06:56:32.050Z,23.22
2022-07-27T06:57:32.035Z,23.77
2022-07-27T06:58:32.033Z,24.10
2022-07-27T06:59:43.428Z,24.41
2022-07-27T07:00:33.088Z,24.54
2022-07-27T07:01:32.072Z,24.98
2022-07-27T07:02:31.985Z,25.19
2022-07-27T07:03:32.046Z,25.28
2022-07-27T07:04:31.955Z,25.34
2022-07-27T07:05:31.964Z,25.06
2022-07-27T07:06:31.934Z,24.79
2022-07-27T07:07:31.932Z,24.57
2022-07-27T07:08:31.918Z,24.41
2022-07-27T07:09:31.909Z,24.29
2022-07-27T07:10:31.915Z,24.22
2022-07-27T07:11:31.879Z,24.02
2022-07-27T07:12:31.874Z,23.90
2022-07-27T07:13:36.557Z,23.87
2022-07-27T07:14:32.850Z,23.67
2022-07-27T07:15:31.845Z,23.61
2022-07-27T07:16:31.926Z,23.47
2022-07-27T07:17:31.819Z,23.26
2022-07-27T07:18:31.815Z,23.09
2022-07-27T07:19:31.794Z,22.97
2022-07-27T07:20:31.785Z,22.74
2022-07-27T07:21:31.785Z,22.74
2022-07-27T07:22:31.764Z,22.83
2022-07-27T07:23:31.746Z,22.93
2022-07-27T07:24:31.736Z,23.05
2022-07-27T07:25:31.733Z,23.05
2022-07-27T07:26:31.732Z,22.96
2022-07-27T07:27:31.708Z,23.02
2022-07-27T07:28:31.697Z,23.12
2022-07-27T07:29:31.688Z,23.09
2022-07-27T07:30:31.675Z,23.19
2022-07-27T07:31:31.794Z,23.07
2022-07-27T07:32:33.737Z,23.09
2022-07-27T07:33:31.661Z,23.09
2022-07-27T07:34:31.627Z,23.07
2022-07-27T07:35:31.622Z,22.94
2022-07-27T07:36:31.612Z,22.87
2022-07-27T07:37:33.847Z,22.86
2022-07-27T07:38:31.592Z,22.77
2022-07-27T07:39:31.784Z,22.90
2022-07-27T07:40:43.347Z,22.77
2022-07-27T07:41:32.548Z,22.74
2022-07-27T07:42:31.573Z,22.83
2022-07-27T07:43:31.554Z,22.86
2022-07-27T07:44:31.575Z,22.89
2022-07-27T07:45:31.533Z,22.89
2022-07-27T07:46:31.581Z,22.84
2022-07-27T07:47:31.485Z,22.89
2022-07-27T07:48:31.539Z,22.83
2022-07-27T07:49:38.087Z,22.71
2022-07-27T07:50:32.457Z,22.64
2022-07-27T07:51:31.443Z,22.65
2022-07-27T07:52:31.438Z,22.68
2022-07-27T07:53:31.432Z,22.68
2022-07-27T07:54:31.409Z,22.86
2022-07-27T07:55:31.395Z,22.75
2022-07-27T07:56:31.389Z,22.69
2022-07-27T07:57:31.379Z,22.74
2022-07-27T07:58:31.377Z,22.68
2022-07-27T07:59:31.358Z,23.15
2022-07-27T08:00:31.342Z,23.20
2022-07-27T08:01:31.374Z,23.42
2022-07-27T08:02:31.373Z,23.52
2022-07-27T08:03:31.441Z,23.58
2022-07-27T08:04:31.302Z,23.79
2022-07-27T08:05:31.291Z,23.90
2022-07-27T08:06:31.278Z,23.97
2022-07-27T08:07:31.263Z,24.02
2022-07-27T08:08:31.294Z,24.00
2022-07-27T08:09:31.242Z,23.90
2022-07-27T08:10:31.236Z,23.79
2022-07-27T08:11:31.224Z,23.75
2022-07-27T08:12:31.218Z,23.76
2022-07-27T08:13:31.210Z,23.75
2022-07-27T08:14:31.208Z,23.60
2022-07-27T08:15:35.865Z,23.39
2022-07-27T08:16:31.267Z,23.19
2022-07-27T08:17:31.152Z,23.22
2022-07-27T08:18:31.145Z,23.20
2022-07-27T08:19:31.130Z,22.86
2022-07-27T08:20:31.135Z,22.74
2022-07-27T08:21:35.555Z,22.71
2022-07-27T08:22:31.101Z,22.56
2022-07-27T08:23:31.085Z,22.43
2022-07-27T08:24:31.092Z,22.44
2022-07-27T08:25:31.074Z,22.27
2022-07-27T08:26:31.062Z,22.31
2022-07-27T08:27:31.047Z,22.44
2022-07-27T08:28:36.842Z,22.52
2022-07-27T08:29:34.179Z,22.72
2022-07-27T08:30:32.411Z,22.83
2022-07-27T08:31:52.660Z,22.77
2022-07-27T08:32:32.052Z,22.60
2022-07-27T08:33:30.975Z,22.64
2022-07-27T08:34:31.004Z,22.64
2022-07-27T08:35:30.975Z,22.56
2022-07-27T08:36:30.949Z,22.72
2022-07-27T08:37:30.934Z,22.59
2022-07-27T08:38:30.933Z,22.71
2022-07-27T08:40:35.360Z,22.78
2022-07-27T08:40:41.863Z,22.89
2022-07-27T08:41:31.890Z,23.04
2022-07-27T08:42:30.885Z,23.04
2022-07-27T08:43:30.863Z,22.75
2022-07-27T08:44:30.864Z,22.74
2022-07-27T08:45:30.850Z,22.64
2022-07-27T08:46:30.922Z,22.62
2022-07-27T08:47:30.821Z,22.46
2022-07-27T08:48:31.077Z,22.56
2022-07-27T08:49:42.367Z,22.31
2022-07-27T08:50:31.786Z,22.31
2022-07-27T08:51:30.809Z,22.29
2022-07-27T08:52:30.774Z,22.25
2022-07-27T08:53:52.727Z,22.23
2022-07-27T08:54:31.752Z,22.09
2022-07-27T08:55:30.735Z,22.01
2022-07-27T08:56:30.759Z,22.07
2022-07-27T08:57:30.728Z,21.97
2022-07-27T08:58:30.712Z,22.01
2022-07-27T08:59:30.696Z,21.95
2022-07-27T09:00:30.688Z,22.02
2022-07-27T09:01:30.764Z,22.12
2022-07-27T09:02:30.859Z,22.32
2022-07-27T09:03:30.706Z,22.84
2022-07-27T09:04:30.632Z,23.23
2022-07-27T09:05:37.052Z,23.35
2022-07-27T09:06:31.623Z,23.31
2022-07-27T09:07:31.289Z,23.12
2022-07-27T09:08:31.292Z,23.08
2022-07-27T09:09:30.582Z,22.97
2022-07-27T09:10:30.579Z,22.82
2022-07-27T09:11:30.554Z,22.74
2022-07-27T09:12:30.545Z,22.56
2022-07-27T09:13:30.575Z,22.47
2022-07-27T09:14:30.520Z,22.44
2022-07-27T09:15:34.510Z,22.35
2022-07-27T09:17:03.144Z,22.37
2022-07-27T09:17:49.132Z,22.39
2022-07-27T09:18:31.602Z,22.28
2022-07-27T09:19:30.472Z,22.16
2022-07-27T09:20:30.457Z,22.20
2022-07-27T09:21:30.447Z,22.52
2022-07-27T09:22:30.439Z,23.47
2022-07-27T09:23:30.438Z,24.27
2022-07-27T09:24:46.197Z,25.17
2022-07-27T09:26:02.981Z,26.01
2022-07-27T09:26:33.769Z,26.72
2022-07-27T09:27:30.386Z,27.35
2022-07-27T09:28:30.371Z,28.07
2022-07-27T09:29:30.382Z,28.59
2022-07-27T09:30:30.355Z,29.10
2022-07-27T09:31:30.446Z,29.37
2022-07-27T09:32:30.331Z,29.71
2022-07-27T09:33:31.068Z,29.97
2022-07-27T09:34:30.325Z,30.24
2022-07-27T09:35:30.289Z,30.65
2022-07-27T09:36:30.289Z,31.26
2022-07-27T09:37:30.271Z,31.50
2022-07-27T09:38:30.272Z,31.08
2022-07-27T09:39:30.262Z,30.23
2022-07-27T09:40:30.240Z,29.15
2022-07-27T09:41:30.230Z,28.33
2022-07-27T09:44:28.454Z,27.29
2022-07-27T09:44:32.777Z,26.84
2022-07-27T09:45:33.960Z,26.50
2022-07-27T09:46:30.326Z,26.25
2022-07-27T09:47:30.177Z,26.06
2022-07-27T09:48:30.172Z,25.69
2022-07-27T09:49:30.148Z,25.46
2022-07-27T09:50:35.500Z,25.12
2022-07-27T09:51:58.770Z,24.79
2022-07-27T09:52:31.111Z,24.69
2022-07-27T09:53:42.932Z,24.82
2022-07-27T09:54:31.093Z,24.69
2022-07-27T09:55:30.087Z,25.07
2022-07-27T09:56:30.087Z,25.05
2022-07-27T09:57:30.054Z,25.06
2022-07-27T09:58:30.044Z,25.06
2022-07-27T09:59:30.038Z,24.80
2022-07-27T10:00:30.033Z,24.71
2022-07-27T10:01:30.079Z,24.56
2022-07-27T10:02:30.119Z,24.37
2022-07-27T10:03:30.007Z,24.17
2022-07-27T10:04:30.059Z,23.97
2022-07-27T10:05:29.977Z,24.00
2022-07-27T10:06:35.763Z,23.92
2022-07-27T10:07:30.977Z,24.00
2022-07-27T10:08:29.942Z,23.94
2022-07-27T10:09:29.921Z,23.82
2022-07-27T10:10:29.924Z,23.75
2022-07-27T10:11:29.901Z,23.70
2022-07-27T10:12:29.891Z,23.57
2022-07-27T10:13:29.907Z,23.40
2022-07-27T10:14:29.871Z,23.32
2022-07-27T10:15:29.917Z,23.22
2022-07-27T10:16:29.954Z,23.19
2022-07-27T10:17:29.836Z,23.22
2022-07-27T10:18:29.837Z,23.17
2022-07-27T10:19:29.828Z,23.14
2022-07-27T10:20:29.813Z,23.23
2022-07-27T10:21:29.800Z,23.09
2022-07-27T10:22:29.780Z,23.24
2022-07-27T10:23:29.785Z,23.75
2022-07-27T10:24:29.768Z,24.14
2022-07-27T10:25:32.297Z,24.38
2022-07-27T10:26:30.743Z,24.42
2022-07-27T10:27:29.733Z,24.77
2022-07-27T10:28:29.716Z,25.93
2022-07-27T10:29:29.709Z,27.14
2022-07-27T10:30:29.701Z,27.84
2022-07-27T10:31:29.822Z,28.75
2022-07-27T10:32:29.672Z,29.53
2022-07-27T10:33:29.659Z,29.59
2022-07-27T10:34:29.661Z,29.55
2022-07-27T10:35:29.648Z,29.34
2022-07-27T10:36:29.636Z,28.88
2022-07-27T10:37:29.638Z,28.59
2022-07-27T10:38:29.607Z,28.23
2022-07-27T10:39:29.602Z,27.84
2022-07-27T10:40:29.594Z,27.58
2022-07-27T10:41:29.583Z,27.31
2022-07-27T10:42:29.570Z,27.04
2022-07-27T10:43:29.579Z,26.65
2022-07-27T10:44:29.549Z,26.50
2022-07-27T10:45:29.536Z,26.37
2022-07-27T10:46:30.585Z,26.20
2022-07-27T10:47:29.507Z,25.84
2022-07-27T10:48:29.500Z,25.79
2022-07-27T10:49:29.614Z,25.65
2022-07-27T10:50:29.477Z,25.65
2022-07-27T10:51:29.471Z,25.72
2022-07-27T10:52:29.465Z,25.62
2022-07-27T10:53:29.447Z,25.64
2022-07-27T10:54:30.228Z,25.56
2022-07-27T10:55:29.421Z,25.71
2022-07-27T10:56:29.412Z,25.89
2022-07-27T10:57:29.399Z,26.09
2022-07-27T10:58:29.397Z,26.08
2022-07-27T10:59:44.974Z,26.25
2022-07-27T11:00:30.395Z,26.28
2022-07-27T11:01:29.438Z,26.35
2022-07-27T11:02:29.354Z,26.31
2022-07-27T11:03:29.342Z,26.20
2022-07-27T11:04:29.379Z,25.98
2022-07-27T11:06:34.637Z,25.71
2022-07-27T11:07:43.738Z,25.86
2022-07-27T11:08:46.610Z,25.69
2022-07-27T11:10:03.005Z,25.74
2022-07-27T11:10:30.267Z,25.65
2022-07-27T11:15:28.812Z,25.71
2022-07-27T11:16:22.942Z,25.71
2022-07-27T11:17:39.876Z,25.77
2022-07-27T11:18:04.317Z,25.86
2022-07-27T11:18:59.685Z,26.09
2022-07-27T11:19:59.656Z,26.32
2022-07-27T11:20:59.702Z,26.54
2022-07-27T11:22:04.278Z,26.74
2022-07-27T11:23:48.680Z,26.89
2022-07-27T11:24:00.547Z,27.10
2022-07-27T11:24:59.534Z,27.16
2022-07-27T11:25:59.541Z,27.21
2022-07-27T11:26:59.512Z,27.21
2022-07-27T11:27:59.509Z,27.10
2022-07-27T11:28:59.496Z,27.13
2022-07-27T11:29:59.487Z,27.04
2022-07-27T11:30:59.539Z,27.11
2022-07-27T11:31:59.638Z,27.23
2022-07-27T11:32:59.456Z,27.19
2022-07-27T11:33:59.438Z,27.28
2022-07-27T11:34:59.435Z,27.24
2022-07-27T11:35:59.440Z,27.06
2022-07-27T11:36:59.413Z,26.83
2022-07-27T11:37:59.403Z,26.73
2022-07-27T11:38:59.382Z,26.54
2022-07-27T11:40:03.301Z,26.43
2022-07-27T11:41:15.162Z,26.28
2022-07-27T11:42:11.591Z,26.25
2022-07-27T11:43:00.340Z,26.04
2022-07-27T11:43:59.339Z,25.98
2022-07-27T11:44:59.322Z,25.91
2022-07-27T11:45:59.364Z,25.93
2022-07-27T11:47:02.037Z,25.99
2022-07-27T11:47:59.287Z,25.74
2022-07-27T11:49:07.843Z,25.53
2022-07-27T11:50:00.414Z,25.43
2022-07-27T11:50:59.280Z,25.19
2022-07-27T11:51:59.266Z,25.17
2022-07-27T11:53:01.793Z,25.22
2022-07-27T11:53:59.222Z,25.17
2022-07-27T11:54:59.211Z,25.27
2022-07-27T11:55:59.207Z,25.12
2022-07-27T11:56:59.204Z,25.35
2022-07-27T11:57:59.192Z,25.31
2022-07-27T11:59:01.412Z,25.34
2022-07-27T11:59:59.169Z,25.31
2022-07-27T12:00:59.145Z,25.44
2022-07-27T12:01:59.322Z,25.67
2022-07-27T12:02:59.127Z,25.77
2022-07-27T12:03:59.140Z,25.79
2022-07-27T12:05:03.069Z,25.82
2022-07-27T12:05:59.091Z,25.71
2022-07-27T12:06:59.132Z,25.49
2022-07-27T12:07:59.067Z,25.43
2022-07-27T12:08:59.060Z,25.35
2022-07-27T12:09:59.058Z,25.13
2022-07-27T12:10:59.042Z,25.22
2022-07-27T12:11:59.039Z,25.00
2022-07-27T12:12:59.015Z,24.94
2022-07-27T12:13:59.021Z,24.91
2022-07-27T12:14:58.990Z,24.87
2022-07-27T12:15:58.993Z,24.83
2022-07-27T12:16:59.052Z,24.92
2022-07-27T12:17:58.967Z,25.01
2022-07-27T12:18:58.953Z,24.95
2022-07-27T12:19:58.942Z,24.97
2022-07-27T12:20:58.931Z,24.90
2022-07-27T12:21:58.935Z,24.83
2022-07-27T12:22:58.932Z,24.92
2022-07-27T12:23:58.899Z,24.95
2022-07-27T12:24:58.887Z,24.95
2022-07-27T12:25:58.878Z,24.83
2022-07-27T12:27:03.139Z,24.83
2022-07-27T12:27:59.871Z,24.90
2022-07-27T12:28:58.837Z,24.85
2022-07-27T12:29:58.843Z,24.90
2022-07-27T12:30:58.863Z,24.80
2022-07-27T12:31:58.812Z,24.85
2022-07-27T12:32:58.818Z,24.87
2022-07-27T12:34:05.628Z,24.83
2022-07-27T12:34:59.777Z,25.01
2022-07-27T12:35:58.765Z,24.98
2022-07-27T12:36:58.754Z,24.90
2022-07-27T12:37:58.765Z,24.95
2022-07-27T12:38:58.727Z,24.85
2022-07-27T12:39:58.720Z,24.80
2022-07-27T12:41:01.213Z,24.88
2022-07-27T12:41:58.696Z,24.82
2022-07-27T12:42:58.711Z,24.71
2022-07-27T12:43:58.672Z,24.71
2022-07-27T12:44:58.668Z,24.73
2022-07-27T12:45:58.732Z,24.53
2022-07-27T12:46:58.638Z,24.52
2022-07-27T12:47:58.644Z,24.56
2022-07-27T12:48:58.689Z,24.76
2022-07-27T12:49:58.617Z,24.91
2022-07-27T12:50:58.601Z,25.20
2022-07-27T12:51:58.589Z,25.43
2022-07-27T12:52:58.600Z,25.62
2022-07-27T12:53:58.566Z,25.83
2022-07-27T12:54:58.549Z,26.05
2022-07-27T12:55:58.546Z,26.28
2022-07-27T12:56:58.534Z,26.32
2022-07-27T12:57:58.547Z,26.27
2022-07-27T12:58:58.507Z,26.58
2022-07-27T12:59:58.495Z,26.52
2022-07-27T13:00:58.535Z,26.65
2022-07-27T13:01:58.677Z,26.68
2022-07-27T13:02:58.517Z,26.76